Time;durP1;ratioP1;P1;durP2;ratioP2;P2;SDS_P1;SDS_P2;PMS_P1;PMS_P2;Temp;Humidity;BMP_temperature;BMP_pressure;BME280_temperature;BME280_humidity;BME280_pressure;Samples;Min_cycle;Max_cycle;Signal;HPM_P1;HPM_P2
2021/04/09 00:01:01;;;;;;;16.23;11.13;;;5.30;90.80;;;;;;5085224;28;20366;-71
2021/04/09 00:03:27;;;;;;;16.50;10.98;;;5.40;90.90;;;;;;5084588;28;20055;-71
2021/04/09 00:05:53;;;;;;;17.02;11.23;;;5.30;90.80;;;;;;5086156;28;20044;-71
2021/04/09 00:08:18;;;;;;;17.58;11.77;;;5.30;90.90;;;;;;5084046;28;20485;-70
2021/04/09 00:10:44;;;;;;;15.07;11.50;;;5.30;91.00;;;;;;5085572;28;20036;-71
2021/04/09 00:13:10;;;;;;;14.48;11.18;;;5.30;91.20;;;;;;5085224;28;20036;-71
2021/04/09 00:15:36;;;;;;;15.98;12.32;;;5.20;91.20;;;;;;5083450;28;20059;-70
2021/04/09 00:18:02;;;;;;;15.95;12.10;;;5.60;91.20;;;;;;5102352;28;20044;-70
2021/04/09 00:20:28;;;;;;;16.98;11.70;;;5.30;91.30;;;;;;5085699;28;20048;-70
2021/04/09 00:22:54;;;;;;;15.65;12.23;;;5.20;91.30;;;;;;5083549;28;20036;-70
2021/04/09 00:25:21;;;;;;;17.17;11.77;;;5.20;91.50;;;;;;5089227;28;20481;-71
2021/04/09 00:27:47;;;;;;;17.38;10.95;;;5.20;91.60;;;;;;5092821;28;20071;-71
2021/04/09 00:30:24;;;;;;;16.98;12.13;;;5.20;91.60;;;;;;5094093;28;20037;-71
2021/04/09 00:32:50;;;;;;;14.85;11.23;;;5.10;91.80;;;;;;5090657;28;20048;-71
2021/04/09 00:35:16;;;;;;;15.90;11.68;;;5.10;91.90;;;;;;5094225;28;20086;-70
2021/04/09 00:37:42;;;;;;;13.63;11.02;;;5.10;92.10;;;;;;5094618;28;20049;-70
2021/04/09 00:40:10;;;;;;;26.58;11.23;;;5.10;92.00;;;;;;5093701;28;20075;-70
2021/04/09 00:42:36;;;;;;;18.23;12.20;;;5.10;92.00;;;;;;5093407;28;20036;-70
2021/04/09 00:45:04;;;;;;;14.82;11.50;;;5.10;92.00;;;;;;5122190;27;20717;-70
2021/04/09 00:47:31;;;;;;;14.75;10.85;;;5.00;92.10;;;;;;5091979;28;20055;-71
2021/04/09 00:49:56;;;;;;;14.50;11.70;;;5.00;92.10;;;;;;5085539;28;20478;-70
2021/04/09 00:52:27;;;;;;;19.77;11.73;;;5.00;92.20;;;;;;5083469;28;20114;-71
2021/04/09 00:54:53;;;;;;;18.02;11.75;;;5.10;92.30;;;;;;5084168;28;20601;-72
2021/04/09 00:57:18;;;;;;;13.38;10.82;;;5.00;92.40;;;;;;5115465;27;20040;-70
2021/04/09 00:59:44;;;;;;;17.58;11.85;;;5.00;92.10;;;;;;5086963;28;20131;-70
2021/04/09 01:02:11;;;;;;;16.15;10.82;;;5.00;92.20;;;;;;5086858;28;20449;-71
2021/04/09 01:04:36;;;;;;;13.95;10.80;;;5.00;92.20;;;;;;5086681;28;20032;-70
2021/04/09 01:07:03;;;;;;;16.67;12.05;;;5.00;92.40;;;;;;5086261;28;20047;-70
2021/04/09 01:09:29;;;;;;;17.48;11.40;;;5.00;92.30;;;;;;5085412;28;20035;-70
2021/04/09 01:11:55;;;;;;;14.65;11.00;;;5.00;92.40;;;;;;5088091;28;20455;-70
2021/04/09 01:14:23;;;;;;;15.10;11.05;;;5.00;92.30;;;;;;5091231;28;20097;-71
2021/04/09 01:17:01;;;;;;;14.98;11.00;;;5.00;92.40;;;;;;5092912;28;20032;-70
2021/04/09 01:19:51;;;;;;;18.30;12.10;;;5.00;92.40;;;;;;5089623;28;20044;-70
2021/04/09 01:22:17;;;;;;;13.35;10.73;;;5.00;92.50;;;;;;5086971;28;20486;-71
2021/04/09 01:25:11;;;;;;;16.52;11.48;;;5.00;92.70;;;;;;5086316;28;20450;-70
2021/04/09 01:27:58;;;;;;;20.00;12.25;;;5.00;92.90;;;;;;5085575;28;20401;-70
2021/04/09 01:30:53;;;;;;;18.50;11.30;;;5.00;92.80;;;;;;5082739;28;20040;-70
2021/04/09 01:33:35;;;;;;;16.38;11.52;;;5.00;92.60;;;;;;5089878;28;20560;-71
2021/04/09 01:36:12;;;;;;;16.42;11.20;;;5.00;92.70;;;;;;5091359;28;20036;-71
2021/04/09 01:38:43;;;;;;;19.00;12.23;;;4.90;92.70;;;;;;5084371;28;20482;-71
2021/04/09 01:41:11;;;;;;;16.48;11.25;;;5.10;93.00;;;;;;5092717;28;20036;-71
2021/04/09 01:43:39;;;;;;;15.70;11.73;;;5.10;92.80;;;;;;5092212;28;20134;-71
2021/04/09 01:46:07;;;;;;;15.07;11.15;;;5.10;92.50;;;;;;5093263;28;20131;-71
2021/04/09 01:48:38;;;;;;;15.73;11.23;;;5.10;92.50;;;;;;5093192;28;20054;-71
2021/04/09 01:51:07;;;;;;;16.23;11.43;;;5.10;92.50;;;;;;5092639;28;20516;-71
2021/04/09 01:53:34;;;;;;;17.33;11.20;;;5.10;92.60;;;;;;5082577;28;20122;-71
2021/04/09 01:56:00;;;;;;;18.95;11.20;;;5.10;92.50;;;;;;5083143;28;20044;-72
2021/04/09 01:58:29;;;;;;;16.08;11.07;;;5.10;92.70;;;;;;5085779;28;20060;-71
2021/04/09 02:00:57;;;;;;;15.55;11.50;;;4.70;92.60;;;;;;5085033;28;20537;-72
2021/04/09 02:03:24;;;;;;;15.48;11.05;;;4.60;92.40;;;;;;5084741;28;20044;-71
2021/04/09 02:05:52;;;;;;;16.95;11.82;;;5.20;92.50;;;;;;5084446;28;20044;-71
2021/04/09 02:08:18;;;;;;;14.10;10.95;;;5.20;92.40;;;;;;5084495;28;20048;-72
2021/04/09 02:10:47;;;;;;;15.18;11.60;;;5.20;92.50;;;;;;5090719;28;20043;-71
2021/04/09 02:13:14;;;;;;;16.95;11.68;;;5.20;92.60;;;;;;5090056;28;20040;-71
2021/04/09 02:15:40;;;;;;;17.38;11.77;;;5.20;92.50;;;;;;5091859;28;20048;-72
2021/04/09 02:18:06;;;;;;;16.02;10.63;;;5.20;92.60;;;;;;5091458;28;20048;-70
2021/04/09 02:20:32;;;;;;;15.73;11.50;;;5.20;92.40;;;;;;5093198;28;20043;-72
2021/04/09 02:22:59;;;;;;;15.13;10.88;;;5.20;92.50;;;;;;5089174;28;20044;-71
2021/04/09 02:25:25;;;;;;;22.65;12.20;;;5.30;92.60;;;;;;5084348;28;20139;-72
2021/04/09 02:27:51;;;;;;;16.73;11.20;;;5.20;92.70;;;;;;5085565;28;20045;-72
2021/04/09 02:30:20;;;;;;;16.40;11.93;;;5.30;92.50;;;;;;5089840;28;20032;-71
2021/04/09 02:32:46;;;;;;;15.93;11.20;;;5.30;92.60;;;;;;5090447;28;20040;-71
2021/04/09 02:35:13;;;;;;;20.02;12.02;;;5.30;92.70;;;;;;5092104;28;20093;-71
2021/04/09 02:37:41;;;;;;;15.32;11.98;;;5.30;92.60;;;;;;5092713;28;20090;-72
2021/04/09 02:40:16;;;;;;;19.02;11.73;;;5.30;92.50;;;;;;5091508;28;20075;-72
2021/04/09 02:42:46;;;;;;;18.88;12.00;;;5.30;92.60;;;;;;5089900;28;20111;-70
2021/04/09 02:45:14;;;;;;;19.40;11.38;;;5.30;92.60;;;;;;5090145;28;20059;-71
2021/04/09 02:47:42;;;;;;;16.48;11.88;;;5.30;92.50;;;;;;5092521;28;20051;-71
2021/04/09 02:50:30;;;;;;;21.00;12.13;;;5.30;92.60;;;;;;5090852;28;20412;-71
2021/04/09 02:53:04;;;;;;;14.55;11.73;;;5.40;92.40;;;;;;5088011;28;20032;-71
2021/04/09 02:55:33;;;;;;;19.25;12.65;;;5.40;92.80;;;;;;5090586;28;20051;-72
2021/04/09 02:58:03;;;;;;;16.17;11.77;;;5.40;92.80;;;;;;5089062;28;20044;-71
2021/04/09 03:00:29;;;;;;;15.73;12.90;;;5.40;92.80;;;;;;5090958;28;20052;-72
2021/04/09 03:02:56;;;;;;;17.65;12.18;;;5.40;92.70;;;;;;5088752;28;20040;-71
2021/04/09 03:05:28;;;;;;;15.07;11.60;;;5.40;93.00;;;;;;5090150;28;20064;-71
2021/04/09 03:07:57;;;;;;;17.63;11.43;;;5.50;93.00;;;;;;5091378;28;20038;-71
2021/04/09 03:10:23;;;;;;;17.08;12.50;;;5.40;93.00;;;;;;5091374;28;20051;-72
2021/04/09 03:12:49;;;;;;;17.10;11.73;;;5.40;93.10;;;;;;5088841;28;20036;-72
2021/04/09 03:15:23;;;;;;;16.83;11.93;;;5.40;93.00;;;;;;5090850;28;20035;-71
2021/04/09 03:18:08;;;;;;;19.52;13.35;;;5.40;93.20;;;;;;5091956;28;20126;-72
2021/04/09 03:20:36;;;;;;;15.38;12.90;;;5.50;93.30;;;;;;5092119;28;20067;-72
2021/04/09 03:23:04;;;;;;;19.63;12.70;;;5.40;93.30;;;;;;5091069;28;20422;-71
2021/04/09 03:25:30;;;;;;;19.02;11.73;;;5.40;93.40;;;;;;5089925;28;20036;-72
2021/04/09 03:27:56;;;;;;;15.43;11.07;;;5.50;93.30;;;;;;5094388;28;20090;-69
2021/04/09 03:30:23;;;;;;;17.42;12.05;;;5.50;93.20;;;;;;5094835;28;20040;-71
2021/04/09 03:32:50;;;;;;;15.95;11.10;;;5.50;93.30;;;;;;5094622;28;20093;-72
2021/04/09 03:35:17;;;;;;;19.20;12.20;;;5.60;93.30;;;;;;5096439;28;20482;-71
2021/04/09 03:37:42;;;;;;;20.40;11.90;;;5.60;93.60;;;;;;5096119;28;20055;-72
2021/04/09 03:40:10;;;;;;;18.20;12.93;;;5.60;93.20;;;;;;5096516;28;20225;-71
2021/04/09 03:42:36;;;;;;;18.08;12.23;;;5.60;93.10;;;;;;5095142;28;20036;-71
2021/04/09 03:45:04;;;;;;;13.73;11.63;;;5.60;93.00;;;;;;5095110;28;20055;-72
2021/04/09 03:47:30;;;;;;;18.80;11.43;;;5.60;93.00;;;;;;5094910;28;20048;-72
2021/04/09 03:49:56;;;;;;;14.95;11.40;;;5.60;93.00;;;;;;5096992;28;20036;-72
2021/04/09 03:52:23;;;;;;;17.27;11.85;;;5.60;93.00;;;;;;5092419;28;20484;-72
2021/04/09 03:54:49;;;;;;;17.67;11.18;;;5.60;93.10;;;;;;5092422;28;20097;-71
2021/04/09 03:57:15;;;;;;;17.95;11.55;;;5.60;93.20;;;;;;5095555;28;20041;-72
2021/04/09 03:59:43;;;;;;;13.90;11.27;;;5.60;93.00;;;;;;5093050;28;20036;-71
2021/04/09 04:02:09;;;;;;;14.27;10.50;;;5.70;93.20;;;;;;5093800;28;20040;-71
2021/04/09 04:04:35;;;;;;;15.38;11.38;;;5.70;93.20;;;;;;5093956;28;20043;-72
2021/04/09 04:07:01;;;;;;;17.35;10.98;;;5.70;93.00;;;;;;5095507;28;20481;-71
2021/04/09 04:09:27;;;;;;;22.60;12.15;;;5.80;93.20;;;;;;5094814;28;20036;-72
2021/04/09 04:11:53;;;;;;;17.83;11.85;;;5.60;93.30;;;;;;5095464;28;20047;-71
2021/04/09 04:14:18;;;;;;;15.95;11.80;;;5.70;93.40;;;;;;5094188;28;20074;-71
2021/04/09 04:16:44;;;;;;;15.57;11.73;;;5.70;93.50;;;;;;5092488;28;20040;-71
2021/04/09 04:19:13;;;;;;;13.60;11.55;;;5.60;93.50;;;;;;5093869;28;20482;-72
2021/04/09 04:21:39;;;;;;;14.23;11.25;;;5.60;93.50;;;;;;5093974;28;20078;-72
2021/04/09 04:24:05;;;;;;;16.73;11.57;;;5.70;93.40;;;;;;5094972;28;20036;-71
2021/04/09 04:26:31;;;;;;;14.70;11.35;;;5.70;93.40;;;;;;5091645;28;20047;-71
2021/04/09 04:28:57;;;;;;;15.77;10.90;;;5.70;93.50;;;;;;5093233;28;20044;-71
2021/04/09 04:31:25;;;;;;;18.27;10.80;;;5.70;93.40;;;;;;5092862;28;20482;-71
2021/04/09 04:33:51;;;;;;;16.23;11.13;;;5.70;93.50;;;;;;5090912;28;20497;-72
2021/04/09 04:36:17;;;;;;;14.30;10.63;;;5.70;93.60;;;;;;5089539;28;20072;-71
2021/04/09 04:38:43;;;;;;;15.95;11.93;;;5.70;93.60;;;;;;5093101;28;20112;-71
2021/04/09 04:41:09;;;;;;;20.23;11.40;;;5.70;93.60;;;;;;5091583;28;20544;-72
2021/04/09 04:43:35;;;;;;;16.92;11.45;;;5.70;93.80;;;;;;5088518;28;20695;-72
2021/04/09 04:46:01;;;;;;;13.93;11.40;;;5.70;93.70;;;;;;5088535;28;20051;-71
2021/04/09 04:48:27;;;;;;;16.17;11.52;;;5.70;93.70;;;;;;5090129;28;20051;-72
2021/04/09 04:50:54;;;;;;;22.60;12.32;;;5.70;93.70;;;;;;5084969;28;20047;-72
2021/04/09 04:53:20;;;;;;;15.88;11.02;;;5.70;93.80;;;;;;5092181;28;20059;-71
2021/04/09 04:55:46;;;;;;;16.63;11.57;;;5.70;93.80;;;;;;5086065;28;20054;-72
2021/04/09 04:58:12;;;;;;;15.30;11.70;;;5.60;93.90;;;;;;5083584;28;20032;-71
2021/04/09 05:00:38;;;;;;;17.48;12.38;;;5.60;93.90;;;;;;5084504;28;20040;-72
2021/04/09 05:03:05;;;;;;;15.30;12.10;;;5.60;94.00;;;;;;5084904;28;20520;-72
2021/04/09 05:05:31;;;;;;;19.65;12.57;;;5.50;94.10;;;;;;5083783;28;20040;-71
2021/04/09 05:07:56;;;;;;;15.50;11.57;;;5.50;94.10;;;;;;5084437;28;20040;-71
2021/04/09 05:10:23;;;;;;;19.98;11.93;;;5.50;94.30;;;;;;5086450;28;20059;-72
2021/04/09 05:12:49;;;;;;;15.90;12.32;;;5.50;94.30;;;;;;5088936;28;20043;-71
2021/04/09 05:15:15;;;;;;;19.83;12.10;;;5.50;94.50;;;;;;5092223;28;20090;-71
2021/04/09 05:17:41;;;;;;;17.92;12.65;;;5.40;94.50;;;;;;5091240;28;20649;-71
2021/04/09 05:20:07;;;;;;;18.17;13.27;;;5.40;94.60;;;;;;5092648;28;20036;-71
2021/04/09 05:22:33;;;;;;;18.73;11.95;;;5.40;94.60;;;;;;5092500;28;20081;-71
2021/04/09 05:24:59;;;;;;;13.45;11.80;;;5.40;94.60;;;;;;5090697;28;20105;-71
2021/04/09 05:27:25;;;;;;;18.38;12.65;;;5.50;94.70;;;;;;5091355;28;20437;-72
2021/04/09 05:29:52;;;;;;;18.73;12.07;;;5.50;94.70;;;;;;5090520;28;20048;-72
2021/04/09 05:32:17;;;;;;;16.38;11.95;;;5.50;94.70;;;;;;5090623;28;20047;-71
2021/04/09 05:34:43;;;;;;;18.55;10.70;;;5.80;94.50;;;;;;5091495;28;20048;-70
2021/04/09 05:37:09;;;;;;;16.38;12.00;;;6.10;93.90;;;;;;5088936;28;20056;-71
2021/04/09 05:39:36;;;;;;;15.35;11.68;;;6.50;93.20;;;;;;5082250;28;20765;-72
2021/04/09 05:42:06;;;;;;;15.88;11.38;;;6.90;92.60;;;;;;5091984;28;20047;-70
2021/04/09 05:44:34;;;;;;;14.60;10.98;;;7.50;91.70;;;;;;5090544;28;20494;-71
2021/04/09 05:47:02;;;;;;;16.40;11.52;;;7.70;90.90;;;;;;5090566;28;20043;-71
2021/04/09 05:49:31;;;;;;;16.60;10.82;;;7.80;90.90;;;;;;5086290;28;20079;-71
2021/04/09 05:51:57;;;;;;;13.20;9.98;;;8.00;90.50;;;;;;5087593;28;20052;-70
2021/04/09 05:54:24;;;;;;;14.43;10.88;;;8.30;90.10;;;;;;5091838;28;20424;-70
2021/04/09 05:56:50;;;;;;;18.63;10.93;;;8.70;89.30;;;;;;5088477;28;20082;-71
2021/04/09 05:59:16;;;;;;;13.90;9.88;;;9.10;87.10;;;;;;5091955;28;20493;-70
2021/04/09 06:01:42;;;;;;;13.80;10.25;;;9.30;86.40;;;;;;5091793;28;20044;-71
2021/04/09 06:04:07;;;;;;;17.88;10.50;;;9.70;85.10;;;;;;5091847;28;20050;-70
2021/04/09 06:06:33;;;;;;;16.95;10.13;;;9.90;84.70;;;;;;5090713;28;20521;-70
2021/04/09 06:08:59;;;;;;;16.10;11.13;;;10.10;82.50;;;;;;5090471;28;20032;-71
2021/04/09 06:11:25;;;;;;;15.98;10.57;;;10.40;81.40;;;;;;5090598;28;20045;-71
2021/04/09 06:13:52;;;;;;;11.88;9.73;;;10.70;80.20;;;;;;5090895;28;20032;-71
2021/04/09 06:16:18;;;;;;;16.27;10.40;;;10.90;78.80;;;;;;5089590;28;20101;-70
2021/04/09 06:18:44;;;;;;;14.45;10.60;;;11.10;79.40;;;;;;5122273;27;20051;-71
2021/04/09 06:21:09;;;;;;;19.25;11.10;;;10.90;78.50;;;;;;5092769;28;20039;-71
2021/04/09 06:23:35;;;;;;;13.43;10.48;;;10.70;78.40;;;;;;5090706;28;20157;-70
2021/04/09 06:26:01;;;;;;;16.00;10.40;;;10.70;78.60;;;;;;5119794;27;20114;-71
2021/04/09 06:28:28;;;;;;;13.68;10.55;;;10.70;79.80;;;;;;5091193;28;20066;-71
2021/04/09 06:30:53;;;;;;;13.15;9.98;;;10.60;79.80;;;;;;5089674;28;20119;-71
2021/04/09 06:33:19;;;;;;;16.27;10.15;;;10.50;80.60;;;;;;5092373;28;20119;-71
2021/04/09 06:35:45;;;;;;;14.48;10.23;;;10.40;81.40;;;;;;5091384;28;20055;-70
2021/04/09 06:38:11;;;;;;;13.55;11.00;;;10.10;81.40;;;;;;5090660;28;20040;-71
2021/04/09 06:40:40;;;;;;;14.75;10.23;;;10.00;82.70;;;;;;5092927;28;20040;-71
2021/04/09 06:43:06;;;;;;;14.98;10.35;;;9.90;83.50;;;;;;5085241;28;20477;-71
2021/04/09 06:45:32;;;;;;;16.13;11.10;;;9.80;84.30;;;;;;5091405;28;20044;-71
2021/04/09 06:47:58;;;;;;;17.73;10.05;;;9.70;85.60;;;;;;5113806;27;20078;-71
2021/04/09 06:50:24;;;;;;;14.02;9.98;;;9.90;85.50;;;;;;5087352;28;20134;-70
2021/04/09 06:52:50;;;;;;;14.52;11.05;;;10.00;85.40;;;;;;5114559;27;20036;-71
2021/04/09 06:55:20;;;;;;;14.93;9.55;;;10.30;85.10;;;;;;5078457;28;20131;-71
2021/04/09 06:57:46;;;;;;;15.82;10.32;;;10.60;83.40;;;;;;5076095;28;20414;-71
2021/04/09 07:00:14;;;;;;;12.43;9.43;;;10.60;83.20;;;;;;5075375;28;20050;-72
2021/04/09 07:02:44;;;;;;;17.80;10.15;;;10.70;83.40;;;;;;5077927;28;20047;-72
2021/04/09 07:05:14;;;;;;;22.95;11.10;;;11.00;83.60;;;;;;5095664;28;20043;-71
2021/04/09 07:07:40;;;;;;;14.07;9.90;;;11.20;82.50;;;;;;5100061;28;20093;-71
2021/04/09 07:10:07;;;;;;;14.35;9.48;;;11.30;81.40;;;;;;5090522;28;20029;-72
2021/04/09 07:12:34;;;;;;;12.93;10.15;;;11.30;81.70;;;;;;5090645;28;20493;-71
2021/04/09 07:15:08;;;;;;;13.07;9.38;;;11.00;82.80;;;;;;5089462;28;20101;-72
2021/04/09 07:17:46;;;;;;;16.23;10.07;;;10.80;83.50;;;;;;5088851;28;20178;-71
2021/04/09 07:20:21;;;;;;;13.68;10.30;;;10.60;84.50;;;;;;5090774;28;20040;-71
2021/04/09 07:23:01;;;;;;;13.48;9.68;;;10.50;86.20;;;;;;5088398;28;20048;-72
2021/04/09 07:25:30;;;;;;;13.18;9.57;;;10.50;86.80;;;;;;5084935;28;20067;-72
2021/04/09 07:28:18;;;;;;;16.05;9.18;;;10.60;86.90;;;;;;5088461;28;20044;-72
2021/04/09 07:30:50;;;;;;;15.68;8.35;;;10.60;87.10;;;;;;5087953;28;20432;-72
2021/04/09 07:33:26;;;;;;;16.73;10.00;;;10.70;87.40;;;;;;5088424;28;20028;-72
2021/04/09 07:36:00;;;;;;;15.40;10.27;;;10.70;88.50;;;;;;5088075;28;20123;-72
2021/04/09 07:38:28;;;;;;;14.98;9.07;;;10.60;88.10;;;;;;5083555;28;20040;-72
2021/04/09 07:41:00;;;;;;;19.48;9.75;;;10.60;88.60;;;;;;5093016;28;20039;-72
2021/04/09 07:43:31;;;;;;;12.75;8.43;;;10.40;89.70;;;;;;5090682;28;20038;-72
2021/04/09 07:45:59;;;;;;;15.75;8.77;;;10.40;89.50;;;;;;5090826;28;20097;-72
2021/04/09 07:48:30;;;;;;;11.63;8.35;;;10.30;90.40;;;;;;5117474;27;20425;-72
2021/04/09 07:50:57;;;;;;;17.95;9.70;;;10.20;90.50;;;;;;5089174;28;20096;-72
2021/04/09 07:53:30;;;;;;;16.98;8.98;;;10.00;90.60;;;;;;5089188;28;20393;-72
2021/04/09 07:56:11;;;;;;;12.00;8.40;;;9.90;91.30;;;;;;5091224;28;20126;-72
2021/04/09 07:58:40;;;;;;;18.02;8.93;;;10.10;91.60;;;;;;5090153;28;20036;-72
2021/04/09 08:01:26;;;;;;;16.20;8.68;;;10.50;91.10;;;;;;5091929;28;20040;-72
2021/04/09 08:03:53;;;;;;;;;;;10.60;90.00;;;;;;5091105;28;20040;-72
2021/04/09 08:06:20;;;;;;;;;;;10.40;90.50;;;;;;5093793;28;19927;-72
2021/04/09 08:08:46;;;;;;;22.20;9.00;;;10.30;91.90;;;;;;5090152;28;19920;-72
2021/04/09 08:11:26;;;;;;;15.30;8.20;;;10.30;91.30;;;;;;5090765;28;20032;-72
2021/04/09 08:14:04;;;;;;;12.77;8.70;;;10.30;91.40;;;;;;5093835;28;20123;-72
2021/04/09 08:16:38;;;;;;;22.58;8.95;;;10.20;91.40;;;;;;5095572;28;20056;-72
2021/04/09 08:19:07;;;;;;;15.60;9.10;;;10.10;91.40;;;;;;5094256;28;20093;-72
2021/04/09 08:21:37;;;;;;;17.33;8.88;;;10.00;91.90;;;;;;5126172;27;20040;-72
2021/04/09 08:24:04;;;;;;;16.05;8.20;;;9.90;92.10;;;;;;5094520;28;20059;-72
2021/04/09 08:26:30;;;;;;;16.35;7.93;;;9.90;92.10;;;;;;5094895;28;20099;-71
2021/04/09 08:28:57;;;;;;;16.05;8.57;;;9.90;92.10;;;;;;5086667;28;20488;-72
2021/04/09 08:31:23;;;;;;;12.63;7.63;;;9.90;92.50;;;;;;5088832;28;20040;-72
2021/04/09 08:33:50;;;;;;;13.32;7.80;;;10.10;91.90;;;;;;5087039;28;20040;-72
2021/04/09 08:36:16;;;;;;;13.43;8.23;;;10.10;92.30;;;;;;5093472;28;20039;-72
2021/04/09 08:38:44;;;;;;;16.10;8.57;;;10.10;91.90;;;;;;5091714;28;20631;-72
2021/04/09 08:41:10;;;;;;;14.73;8.32;;;10.00;92.30;;;;;;5095218;28;20051;-72
2021/04/09 08:43:38;;;;;;;22.10;9.40;;;10.00;92.60;;;;;;5092888;28;20032;-72
2021/04/09 08:46:05;;;;;;;15.85;8.15;;;10.00;92.70;;;;;;5094506;28;20131;-72
2021/04/09 08:48:32;;;;;;;16.52;8.75;;;10.00;92.90;;;;;;5091027;28;20465;-71
2021/04/09 08:50:59;;;;;;;21.25;8.98;;;10.00;92.90;;;;;;5084763;28;20063;-72
2021/04/09 08:53:29;;;;;;;20.88;9.15;;;10.00;93.70;;;;;;5084931;28;20434;-72
2021/04/09 08:55:57;;;;;;;15.60;7.78;;;10.10;93.40;;;;;;5081482;28;20047;-72
2021/04/09 08:58:23;;;;;;;13.43;8.18;;;10.10;93.30;;;;;;5081980;28;20059;-72
2021/04/09 09:00:51;;;;;;;11.70;7.30;;;10.00;93.70;;;;;;5085737;28;20044;-72
2021/04/09 09:03:29;;;;;;;13.85;7.78;;;10.10;93.30;;;;;;5087259;28;20040;-72
2021/04/09 09:06:03;;;;;;;15.68;7.47;;;10.00;92.90;;;;;;5084960;28;20040;-72
2021/04/09 09:08:41;;;;;;;16.70;7.85;;;10.00;93.50;;;;;;5082262;28;20048;-71
2021/04/09 09:11:08;;;;;;;14.45;7.43;;;10.00;93.90;;;;;;5082707;28;20551;-72
2021/04/09 09:13:54;;;;;;;16.63;6.82;;;10.00;94.10;;;;;;5085292;28;20175;-72
2021/04/09 09:16:20;;;;;;;17.15;5.03;;;10.00;93.60;;;;;;5081975;28;20123;-71
2021/04/09 09:18:51;;;;;;;13.27;5.57;;;10.00;93.90;;;;;;5089902;28;20051;-72
2021/04/09 09:21:21;;;;;;;12.65;5.30;;;10.00;93.80;;;;;;5092252;28;20034;-72
2021/04/09 09:23:53;;;;;;;15.63;5.15;;;9.90;93.40;;;;;;5083022;28;20035;-72
2021/04/09 09:26:29;;;;;;;14.75;5.95;;;9.90;93.40;;;;;;5084189;28;20063;-72
2021/04/09 09:29:28;;;;;;;14.02;4.97;;;9.90;93.60;;;;;;5084765;28;20051;-72
2021/04/09 09:32:02;;;;;;;14.15;6.03;;;9.80;93.40;;;;;;5057439;28;20101;-72
2021/04/09 09:34:31;;;;;;;10.05;5.35;;;9.60;94.10;;;;;;5083531;28;21100;-72
2021/04/09 09:37:34;;;;;;;15.10;5.55;;;9.70;94.40;;;;;;5083787;28;20549;-72
2021/04/09 09:40:05;;;;;;;9.88;5.45;;;9.70;94.20;;;;;;5097412;28;20064;-72
2021/04/09 09:42:33;;;;;;;14.98;6.18;;;9.70;93.80;;;;;;5084678;28;20490;-72
2021/04/09 09:45:07;;;;;;;11.20;5.28;;;9.60;94.40;;;;;;5090442;28;20237;-72
2021/04/09 09:47:41;;;;;;;19.98;6.40;;;9.60;94.60;;;;;;5090115;28;20561;-72
2021/04/09 09:50:08;;;;;;;13.60;5.43;;;9.60;94.20;;;;;;5081622;28;21009;-72
2021/04/09 09:52:47;;;;;;;21.15;6.30;;;9.70;94.30;;;;;;5089315;28;20044;-72
2021/04/09 09:55:15;;;;;;;11.05;4.60;;;9.50;94.40;;;;;;5065569;28;20036;-72
2021/04/09 09:57:52;;;;;;;17.80;5.38;;;9.50;94.20;;;;;;5084384;28;20047;-72
2021/04/09 10:00:27;;;;;;;12.90;5.07;;;9.40;94.60;;;;;;5089464;28;20052;-72
2021/04/09 10:03:14;;;;;;;14.80;4.72;;;9.40;94.50;;;;;;5083807;28;20455;-72
2021/04/09 10:05:45;;;;;;;11.13;3.97;;;9.50;94.40;;;;;;5089962;28;20765;-72
2021/04/09 10:08:12;;;;;;;18.98;5.10;;;9.40;94.40;;;;;;5088631;28;20482;-72
2021/04/09 10:10:39;;;;;;;11.73;4.93;;;9.40;94.70;;;;;;5085174;28;20033;-72
2021/04/09 10:13:16;;;;;;;16.02;4.70;;;9.60;94.90;;;;;;5086932;28;20111;-72
2021/04/09 10:15:41;;;;;;;14.25;3.80;;;9.70;94.50;;;;;;5088107;28;20040;-72
2021/04/09 10:18:08;;;;;;;14.30;3.17;;;9.70;94.30;;;;;;5090353;28;20071;-72
2021/04/09 10:20:33;;;;;;;11.52;2.78;;;9.80;93.60;;;;;;5090372;28;20040;-72
2021/04/09 10:22:59;;;;;;;15.68;3.78;;;9.80;93.60;;;;;;5092218;28;20390;-72
2021/04/09 10:25:33;;;;;;;15.15;4.13;;;9.90;94.20;;;;;;5091853;28;20101;-72
2021/04/09 10:27:59;;;;;;;15.57;3.90;;;9.90;93.60;;;;;;5087970;28;20050;-72
2021/04/09 10:30:29;;;;;;;17.05;4.00;;;10.00;93.90;;;;;;5074197;28;20048;-72
2021/04/09 10:32:55;;;;;;;17.00;6.13;;;10.00;94.10;;;;;;5091373;28;20044;-72
2021/04/09 10:35:24;;;;;;;14.27;3.88;;;10.10;94.00;;;;;;5089433;28;20066;-72
2021/04/09 10:37:51;;;;;;;14.88;4.85;;;10.20;94.20;;;;;;5086448;28;20039;-72
2021/04/09 10:40:17;;;;;;;15.98;4.43;;;10.30;94.10;;;;;;5086401;28;20047;-72
2021/04/09 10:42:59;;;;;;;12.60;3.28;;;10.20;93.70;;;;;;5087406;28;20036;-72
2021/04/09 10:45:24;;;;;;;8.20;3.40;;;10.30;93.90;;;;;;5089060;28;20050;-72
2021/04/09 10:47:53;;;;;;;9.95;3.38;;;10.30;93.60;;;;;;5089660;28;20508;-72
2021/04/09 10:50:19;;;;;;;16.90;3.53;;;10.50;93.90;;;;;;5091510;28;20516;-72
2021/04/09 10:52:45;;;;;;;15.95;3.47;;;10.60;93.60;;;;;;5089913;28;20028;-72
2021/04/09 10:55:12;;;;;;;12.82;3.88;;;10.70;93.60;;;;;;5089749;28;20410;-72
2021/04/09 10:57:38;;;;;;;17.73;4.15;;;10.70;93.10;;;;;;5093025;28;20131;-72
2021/04/09 11:00:07;;;;;;;11.68;4.03;;;10.70;92.80;;;;;;5088753;28;20529;-72
2021/04/09 11:02:36;;;;;;;10.90;3.60;;;10.90;93.20;;;;;;5090425;28;20036;-71
2021/04/09 11:05:04;;;;;;;14.07;2.92;;;11.10;92.30;;;;;;5089235;28;20028;-72
2021/04/09 11:07:47;;;;;;;11.10;2.72;;;11.10;91.90;;;;;;5123080;27;20052;-72
2021/04/09 11:10:28;;;;;;;12.18;3.30;;;11.10;92.20;;;;;;5090731;28;20043;-72
2021/04/09 11:12:55;;;;;;;7.57;2.65;;;11.10;92.00;;;;;;5089925;28;20048;-72
2021/04/09 11:15:21;;;;;;;10.15;3.05;;;11.00;91.50;;;;;;5091994;28;20046;-71
2021/04/09 11:18:01;;;;;;;13.82;3.05;;;10.90;92.00;;;;;;5092263;28;20044;-72
2021/04/09 11:20:33;;;;;;;12.05;2.50;;;10.80;91.80;;;;;;5090023;28;20055;-72
2021/04/09 11:23:00;;;;;;;8.50;2.55;;;10.70;91.90;;;;;;5090017;28;20230;-72
2021/04/09 11:25:39;;;;;;;11.88;2.92;;;10.70;91.80;;;;;;5087008;28;20047;-72
2021/04/09 11:28:06;;;;;;;9.82;2.65;;;10.60;92.40;;;;;;5100475;28;20034;-70
2021/04/09 11:30:35;;;;;;;9.63;3.05;;;10.50;92.50;;;;;;5085306;28;20036;-71
2021/04/09 11:33:01;;;;;;;14.25;2.60;;;10.40;92.30;;;;;;5088562;28;20075;-71
2021/04/09 11:35:36;;;;;;;9.38;2.78;;;10.40;92.90;;;;;;5085730;28;20045;-72
2021/04/09 11:38:06;;;;;;;14.45;3.50;;;10.30;92.90;;;;;;5087593;28;20036;-72
2021/04/09 11:40:40;;;;;;;10.48;2.30;;;10.20;92.60;;;;;;5090953;28;20036;-72
2021/04/09 11:43:06;;;;;;;13.88;3.35;;;10.20;93.20;;;;;;5089714;28;20085;-71
2021/04/09 11:45:46;;;;;;;10.18;2.92;;;10.10;92.90;;;;;;5092267;28;20043;-71
2021/04/09 11:48:26;;;;;;;8.13;2.22;;;10.00;92.60;;;;;;5093591;28;20035;-71
2021/04/09 11:50:53;;;;;;;10.45;1.95;;;10.00;92.60;;;;;;5096240;28;20444;-71
2021/04/09 11:53:18;;;;;;;9.45;2.22;;;10.00;92.90;;;;;;5096713;28;20160;-72
2021/04/09 11:55:47;;;;;;;10.88;2.70;;;10.00;93.40;;;;;;5096023;28;20054;-71
2021/04/09 11:58:25;;;;;;;9.50;2.63;;;10.00;93.80;;;;;;5094579;28;20044;-71
2021/04/09 12:01:02;;;;;;;6.80;2.35;;;10.10;93.80;;;;;;5094678;28;20040;-71
2021/04/09 12:03:41;;;;;;;12.50;2.70;;;10.10;93.90;;;;;;5095782;28;20047;-71
2021/04/09 12:06:14;;;;;;;13.38;2.58;;;10.10;93.70;;;;;;5096587;28;20040;-71
2021/04/09 12:08:41;;;;;;;13.02;2.65;;;10.10;93.10;;;;;;5091545;28;20044;-71
2021/04/09 12:11:08;;;;;;;11.93;2.30;;;10.10;93.70;;;;;;5095568;28;20570;-71
2021/04/09 12:13:37;;;;;;;9.13;2.10;;;10.10;93.10;;;;;;5091390;28;20043;-71
2021/04/09 12:16:05;;;;;;;6.45;2.08;;;10.10;92.80;;;;;;5093689;28;20032;-71
2021/04/09 12:18:30;;;;;;;9.70;2.08;;;10.10;93.10;;;;;;5094039;28;20044;-70
2021/04/09 12:20:56;;;;;;;12.57;3.05;;;10.10;93.60;;;;;;5091894;28;20032;-72
2021/04/09 12:23:22;;;;;;;7.65;2.83;;;10.00;93.50;;;;;;5093925;28;20054;-71
2021/04/09 12:25:48;;;;;;;9.60;2.85;;;10.00;93.90;;;;;;5073777;28;20619;-70
2021/04/09 12:28:15;;;;;;;11.55;2.80;;;10.10;93.90;;;;;;5087896;28;20040;-71
2021/04/09 12:30:41;;;;;;;9.30;2.47;;;10.00;93.60;;;;;;5088753;28;20047;-71
2021/04/09 12:33:07;;;;;;;9.27;2.55;;;10.00;93.80;;;;;;5089735;28;20033;-71
2021/04/09 12:35:32;;;;;;;8.48;2.78;;;10.00;94.10;;;;;;5093655;28;20205;-71
2021/04/09 12:37:58;;;;;;;12.68;3.10;;;10.00;94.90;;;;;;5093775;28;20040;-72
2021/04/09 12:40:24;;;;;;;11.90;3.58;;;10.00;94.40;;;;;;5092955;28;20032;-72
2021/04/09 12:42:50;;;;;;;9.43;3.22;;;10.00;94.70;;;;;;5091493;28;20036;-72
2021/04/09 12:45:17;;;;;;;13.30;3.03;;;9.90;95.70;;;;;;5092626;28;20052;-71
2021/04/09 12:47:43;;;;;;;13.00;3.05;;;9.90;96.30;;;;;;5094367;28;20040;-71